Time,TemperatureF,DewpointF,PressureIn,WindDirection,WindDirectionDegrees,WindSpeedMPH,WindSpeedGustMPH,Humidity,HourlyPrecipIn,Conditions,Clouds,dailyrainin,SoftwareType,DateUTC
2013-05-28 00:05:00,48.3,42.7,30.21,West,277,0.0,0.0,81,0.00,,,0.00,Wunderground v.1.15,2013-05-28 04:05:00,
2013-05-28 00:10:00,48.1,42.9,30.21,West,277,0.0,0.0,82,0.00,,,0.00,Wunderground v.1.15,2013-05-28 04:10:00,
2013-05-28 00:15:00,47.9,42.7,30.21,West,277,0.0,0.0,82,0.00,,,0.00,Wunderground v.1.15,2013-05-28 04:15:00,
2013-05-28 00:20:00,47.4,42.5,30.21,West,277,0.0,0.0,83,0.00,,,0.00,Wunderground v.1.15,2013-05-28 04:20:00,
2013-05-28 00:25:00,47.3,42.7,30.21,West,277,0.0,0.0,84,0.00,,,0.00,Wunderground v.1.15,2013-05-28 04:25:00,
2013-05-28 00:30:00,47.4,43.1,30.21,West,277,0.0,0.0,85,0.00,,,0.00,Wunderground v.1.15,2013-05-28 04:30:00,
2013-05-28 00:35:00,47.3,43.3,30.21,West,277,0.0,0.0,86,0.00,,,0.00,Wunderground v.1.15,2013-05-28 04:35:00,
2013-05-28 00:40:00,47.3,43.6,30.22,West,277,0.0,0.0,87,0.00,,,0.00,Wunderground v.1.15,2013-05-28 04:40:00,
2013-05-28 00:45:00,47.2,43.5,30.22,West,277,0.0,0.0,87,0.00,,,0.00,Wunderground v.1.15,2013-05-28 04:45:00,
2013-05-28 00:50:00,47.1,43.4,30.22,West,277,0.0,0.0,87,0.00,,,0.00,Wunderground v.1.15,2013-05-28 04:50:00,
2013-05-28 01:00:00,47.1,43.4,30.22,West,277,0.0,0.0,87,0.00,,,0.00,Wunderground v.1.15,2013-05-28 05:00:00,
2013-05-28 01:10:00,47.1,43.4,30.22,West,277,0.0,0.0,87,0.00,,,0.00,Wunderground v.1.15,2013-05-28 05:10:00,
2013-05-28 01:20:00,46.8,42.8,30.22,West,277,0.0,0.0,86,0.00,,,0.00,Wunderground v.1.15,2013-05-28 05:20:00,
2013-05-28 01:25:00,46.7,43.0,30.22,West,277,0.0,0.0,87,0.00,,,0.00,Wunderground v.1.15,2013-05-28 05:25:00,
2013-05-28 01:30:00,46.5,42.5,30.22,West,277,0.0,0.0,86,0.00,,,0.00,Wunderground v.1.15,2013-05-28 05:30:00,
2013-05-28 01:40:00,46.3,42.3,30.22,West,277,0.0,0.0,86,0.00,,,0.00,Wunderground v.1.15,2013-05-28 05:40:00,
2013-05-28 01:45:00,46.3,42.3,30.22,West,277,0.0,0.0,86,0.00,,,0.00,Wunderground v.1.15,2013-05-28 05:45:00,
2013-05-28 01:50:00,46.3,42.0,30.22,West,277,0.0,0.0,85,0.00,,,0.00,Wunderground v.1.15,2013-05-28 05:50:00,
2013-05-28 01:55:00,46.1,41.8,30.22,West,277,0.0,0.0,85,0.00,,,0.00,Wunderground v.1.15,2013-05-28 05:55:00,
2013-05-28 02:00:00,46.0,42.0,30.22,West,277,0.0,0.0,86,0.00,,,0.00,Wunderground v.1.15,2013-05-28 06:00:00,
2013-05-28 02:05:00,45.9,41.9,30.22,West,277,0.0,0.0,86,0.00,,,0.00,Wunderground v.1.15,2013-05-28 06:05:00,
2013-05-28 02:15:00,45.6,41.7,30.23,West,277,0.0,0.0,86,0.00,,,0.00,Wunderground v.1.15,2013-05-28 06:15:00,
2013-05-28 02:20:00,45.1,41.5,30.23,West,277,0.0,0.0,87,0.00,,,0.00,Wunderground v.1.15,2013-05-28 06:20:00,
2013-05-28 02:25:00,44.7,41.1,30.23,West,277,0.0,0.0,87,0.00,,,0.00,Wunderground v.1.15,2013-05-28 06:25:00,
2013-05-28 02:30:00,44.2,40.9,30.23,West,277,0.0,0.0,88,0.00,,,0.00,Wunderground v.1.15,2013-05-28 06:30:00,
2013-05-28 02:35:00,44.1,41.1,30.23,West,277,0.0,0.0,89,0.00,,,0.00,Wunderground v.1.15,2013-05-28 06:35:00,
2013-05-28 02:40:00,43.9,41.2,30.23,West,277,0.0,0.0,90,0.00,,,0.00,Wunderground v.1.15,2013-05-28 06:40:00,
2013-05-28 02:50:00,43.8,41.3,30.23,West,277,0.0,0.0,91,0.00,,,0.00,Wunderground v.1.15,2013-05-28 06:50:00,
2013-05-28 02:55:00,43.7,41.2,30.23,West,277,0.0,0.0,91,0.00,,,0.00,Wunderground v.1.15,2013-05-28 06:55:00,
2013-05-28 03:00:00,43.5,41.0,30.23,West,277,0.0,0.0,91,0.00,,,0.00,Wunderground v.1.15,2013-05-28 07:00:00,
2013-05-28 03:05:00,43.3,40.8,30.23,West,277,0.0,0.0,91,0.00,,,0.00,Wunderground v.1.15,2013-05-28 07:05:00,
2013-05-28 03:10:00,43.3,41.1,30.23,West,277,0.0,0.0,92,0.00,,,0.00,Wunderground v.1.15,2013-05-28 07:10:00,
2013-05-28 03:15:00,43.5,41.6,30.23,West,277,0.0,0.0,93,0.00,,,0.00,Wunderground v.1.15,2013-05-28 07:15:00,
2013-05-28 03:25:00,43.5,41.3,30.24,West,277,0.0,0.0,92,0.00,,,0.00,Wunderground v.1.15,2013-05-28 07:25:00,
2013-05-28 03:30:00,43.3,41.1,30.24,West,277,0.0,0.0,92,0.00,,,0.00,Wunderground v.1.15,2013-05-28 07:30:00,
2013-05-28 03:40:00,43.0,40.8,30.24,West,277,0.0,0.0,92,0.00,,,0.00,Wunderground v.1.15,2013-05-28 07:40:00,
2013-05-28 03:45:00,43.2,41.3,30.24,West,277,0.0,0.0,93,0.00,,,0.00,Wunderground v.1.15,2013-05-28 07:45:00,
2013-05-28 03:50:00,43.1,40.9,30.24,West,277,0.0,0.0,92,0.00,,,0.00,Wunderground v.1.15,2013-05-28 07:50:00,
2013-05-28 04:00:00,43.0,40.8,30.24,West,277,0.0,0.0,92,0.00,,,0.00,Wunderground v.1.15,2013-05-28 08:00:00,
2013-05-28 04:05:00,42.9,40.7,30.24,West,277,0.0,0.0,92,0.00,,,0.00,Wunderground v.1.15,2013-05-28 08:05:00,
2013-05-28 04:10:00,42.7,40.5,30.24,West,277,0.0,0.0,92,0.00,,,0.00,Wunderground v.1.15,2013-05-28 08:10:00,
2013-05-28 04:15:00,42.5,40.3,30.24,West,277,0.0,0.0,92,0.00,,,0.00,Wunderground v.1.15,2013-05-28 08:15:00,
2013-05-28 04:20:00,42.6,40.4,30.24,West,277,0.0,0.0,92,0.00,,,0.00,Wunderground v.1.15,2013-05-28 08:20:00,
2013-05-28 04:25:00,42.5,40.3,30.24,West,277,0.0,0.0,92,0.00,,,0.00,Wunderground v.1.15,2013-05-28 08:25:00,
2013-05-28 04:35:00,42.3,40.1,30.25,West,277,0.0,0.0,92,0.00,,,0.00,Wunderground v.1.15,2013-05-28 08:35:00,
2013-05-28 04:40:00,42.2,40.0,30.24,West,277,0.0,0.0,92,0.00,,,0.00,Wunderground v.1.15,2013-05-28 08:40:00,
2013-05-28 04:45:00,42.8,40.9,30.25,West,277,0.0,0.0,93,0.00,,,0.00,Wunderground v.1.15,2013-05-28 08:45:00,
2013-05-28 04:50:00,42.8,40.6,30.25,West,277,0.0,0.0,92,0.00,,,0.00,Wunderground v.1.15,2013-05-28 08:50:00,
2013-05-28 04:55:00,42.8,40.6,30.25,West,277,0.0,0.0,92,0.00,,,0.00,Wunderground v.1.15,2013-05-28 08:55:00,
2013-05-28 05:00:00,42.8,40.6,30.25,West,277,0.0,0.0,92,0.00,,,0.00,Wunderground v.1.15,2013-05-28 09:00:00,
2013-05-28 05:10:00,42.8,40.6,30.25,West,277,0.0,0.0,92,0.00,,,0.00,Wunderground v.1.15,2013-05-28 09:10:00,
2013-05-28 05:15:00,42.8,40.6,30.25,West,277,0.0,0.0,92,0.00,,,0.00,Wunderground v.1.15,2013-05-28 09:15:00,
2013-05-28 05:20:00,42.8,40.6,30.26,West,277,0.0,0.0,92,0.00,,,0.00,Wunderground v.1.15,2013-05-28 09:20:00,
2013-05-28 05:30:00,42.6,40.4,30.26,West,277,0.0,0.0,92,0.00,,,0.00,Wunderground v.1.15,2013-05-28 09:30:00,
2013-05-28 05:35:00,42.7,40.5,30.26,West,277,0.0,0.0,92,0.00,,,0.00,Wunderground v.1.15,2013-05-28 09:35:00,
2013-05-28 05:40:00,42.8,40.6,30.26,West,277,0.0,1.0,92,0.00,,,0.00,Wunderground v.1.15,2013-05-28 09:40:00,
2013-05-28 05:50:00,42.8,40.4,30.26,West,277,0.0,0.0,91,0.00,,,0.00,Wunderground v.1.15,2013-05-28 09:50:00,
2013-05-28 05:55:00,42.9,40.5,30.26,West,277,0.0,0.0,91,0.00,,,0.00,Wunderground v.1.15,2013-05-28 09:55:00,
2013-05-28 06:00:00,43.1,40.7,30.27,West,277,0.0,0.0,91,0.00,,,0.00,Wunderground v.1.15,2013-05-28 10:00:00,
2013-05-28 06:05:00,43.5,41.0,30.27,West,277,0.0,0.0,91,0.00,,,0.00,Wunderground v.1.15,2013-05-28 10:05:00,
2013-05-28 06:10:00,44.0,41.5,30.27,West,277,0.0,0.0,91,0.00,,,0.00,Wunderground v.1.15,2013-05-28 10:10:00,
2013-05-28 06:15:00,44.5,41.7,30.27,West,277,0.0,0.0,90,0.00,,,0.00,Wunderground v.1.15,2013-05-28 10:15:00,
2013-05-28 06:25:00,46.2,42.8,30.27,West,277,0.0,0.0,88,0.00,,,0.00,Wunderground v.1.15,2013-05-28 10:25:00,
2013-05-28 06:30:00,46.9,42.9,30.27,West,277,0.0,0.0,86,0.00,,,0.00,Wunderground v.1.15,2013-05-28 10:30:00,
2013-05-28 06:35:00,47.6,43.3,30.27,West,277,0.0,0.0,85,0.00,,,0.00,Wunderground v.1.15,2013-05-28 10:35:00,
2013-05-28 06:40:00,48.0,43.4,30.27,West,277,0.0,0.0,84,0.00,,,0.00,Wunderground v.1.15,2013-05-28 10:40:00,
2013-05-28 06:45:00,48.5,43.6,30.27,West,277,0.0,0.0,83,0.00,,,0.00,Wunderground v.1.15,2013-05-28 10:45:00,
2013-05-28 06:50:00,49.2,44.3,30.27,West,277,0.0,0.0,83,0.00,,,0.00,Wunderground v.1.15,2013-05-28 10:50:00,
2013-05-28 07:00:00,51.4,45.4,30.27,West,277,0.0,0.0,80,0.00,,,0.00,Wunderground v.1.15,2013-05-28 11:00:00,
2013-05-28 07:10:00,53.0,45.6,30.27,West,277,0.0,0.0,76,0.00,,,0.00,Wunderground v.1.15,2013-05-28 11:10:00,
2013-05-28 07:15:00,53.7,46.0,30.27,West,277,0.0,0.0,75,0.00,,,0.00,Wunderground v.1.15,2013-05-28 11:15:00,
2013-05-28 07:20:00,54.1,45.6,30.28,West,277,0.0,0.0,73,0.00,,,0.00,Wunderground v.1.15,2013-05-28 11:20:00,
2013-05-28 07:25:00,54.5,45.3,30.28,West,277,0.0,0.0,71,0.00,,,0.00,Wunderground v.1.15,2013-05-28 11:25:00,
2013-05-28 07:30:00,54.5,45.3,30.28,West,277,0.0,0.0,71,0.00,,,0.00,Wunderground v.1.15,2013-05-28 11:30:00,
2013-05-28 07:35:00,55.0,45.4,30.28,West,277,0.0,0.0,70,0.00,,,0.00,Wunderground v.1.15,2013-05-28 11:35:00,
2013-05-28 07:40:00,55.4,44.6,30.28,West,277,0.0,0.0,67,0.00,,,0.00,Wunderground v.1.15,2013-05-28 11:40:00,
2013-05-28 07:45:00,55.7,43.7,30.28,West,277,0.0,0.0,64,0.00,,,0.00,Wunderground v.1.15,2013-05-28 11:45:00,
2013-05-28 07:50:00,55.8,43.4,30.28,West,277,0.0,0.0,63,0.00,,,0.00,Wunderground v.1.15,2013-05-28 11:50:00,
2013-05-28 07:55:00,56.5,43.6,30.28,West,277,0.0,0.0,62,0.00,,,0.00,Wunderground v.1.15,2013-05-28 11:55:00,
2013-05-28 08:00:00,57.2,43.9,30.28,West,277,0.0,0.0,61,0.00,,,0.00,Wunderground v.1.15,2013-05-28 12:00:00,
2013-05-28 08:05:00,57.8,44.0,30.28,West,277,0.0,0.0,60,0.00,,,0.00,Wunderground v.1.15,2013-05-28 12:05:00,
2013-05-28 08:15:00,58.1,43.4,30.28,West,277,0.0,1.0,58,0.00,,,0.00,Wunderground v.1.15,2013-05-28 12:15:00,
2013-05-28 08:20:00,58.4,43.7,30.28,West,277,0.0,0.0,58,0.00,,,0.00,Wunderground v.1.15,2013-05-28 12:20:00,
2013-05-28 08:25:00,58.6,43.9,30.28,West,277,0.0,0.0,58,0.00,,,0.00,Wunderground v.1.15,2013-05-28 12:25:00,
2013-05-28 08:30:00,58.8,43.6,30.28,West,277,0.0,0.0,57,0.00,,,0.00,Wunderground v.1.15,2013-05-28 12:30:00,
2013-05-28 08:40:00,59.3,43.6,30.28,West,277,0.0,0.0,56,0.00,,,0.00,Wunderground v.1.15,2013-05-28 12:40:00,
2013-05-28 08:45:00,59.8,44.1,30.28,West,277,0.0,1.0,56,0.00,,,0.00,Wunderground v.1.15,2013-05-28 12:45:00,
2013-05-28 08:50:00,60.1,44.3,30.28,West,277,0.0,0.0,56,0.00,,,0.00,Wunderground v.1.15,2013-05-28 12:50:00,
2013-05-28 08:55:00,60.5,44.7,30.27,West,277,0.0,1.0,56,0.00,,,0.00,Wunderground v.1.15,2013-05-28 12:55:00,
2013-05-28 09:00:00,61.1,45.3,30.27,West,277,0.0,0.0,56,0.00,,,0.00,Wunderground v.1.15,2013-05-28 13:00:00,
2013-05-28 09:10:00,62.5,44.1,30.28,WSW,249,1.0,1.0,51,0.00,,,0.00,Wunderground v.1.15,2013-05-28 13:10:00,
2013-05-28 09:15:00,63.2,44.2,30.27,WSW,256,2.0,2.0,50,0.00,,,0.00,Wunderground v.1.15,2013-05-28 13:15:00,
2013-05-28 09:20:00,63.7,44.7,30.27,NNW,343,2.0,2.0,50,0.00,,,0.00,Wunderground v.1.15,2013-05-28 13:20:00,
2013-05-28 09:30:00,64.6,45.0,30.27,South,176,2.0,2.0,49,0.00,,,0.00,Wunderground v.1.15,2013-05-28 13:30:00,
2013-05-28 09:35:00,65.0,44.3,30.27,West,261,2.0,2.0,47,0.00,,,0.00,Wunderground v.1.15,2013-05-28 13:35:00,
2013-05-28 09:40:00,65.3,44.5,30.27,West,277,2.0,2.0,47,0.00,,,0.00,Wunderground v.1.15,2013-05-28 13:40:00,
2013-05-28 09:45:00,65.8,44.4,30.28,West,275,2.0,2.0,46,0.00,,,0.00,Wunderground v.1.15,2013-05-28 13:45:00,
2013-05-28 09:50:00,66.0,43.5,30.28,WNW,288,2.0,2.0,44,0.00,,,0.00,Wunderground v.1.15,2013-05-28 13:50:00,
2013-05-28 09:55:00,65.6,43.7,30.27,West,264,2.0,2.0,45,0.00,,,0.00,Wunderground v.1.15,2013-05-28 13:55:00,
2013-05-28 10:05:00,66.5,43.3,30.27,WSW,245,2.0,4.0,43,0.00,,,0.00,Wunderground v.1.15,2013-05-28 14:05:00,
2013-05-28 10:10:00,67.0,42.5,30.27,South,191,3.0,5.0,41,0.00,,,0.00,Wunderground v.1.15,2013-05-28 14:10:00,
2013-05-28 10:15:00,67.2,43.3,30.27,WSW,247,3.0,5.0,42,0.00,,,0.00,Wunderground v.1.15,2013-05-28 14:15:00,
2013-05-28 10:20:00,67.2,43.3,30.28,WSW,244,3.0,8.0,42,0.00,,,0.00,Wunderground v.1.15,2013-05-28 14:20:00,
2013-05-28 10:25:00,67.3,44.0,30.27,SW,222,2.0,8.0,43,0.00,,,0.00,Wunderground v.1.15,2013-05-28 14:25:00,
2013-05-28 10:30:00,67.2,43.3,30.27,SSW,205,3.0,3.0,42,0.00,,,0.00,Wunderground v.1.15,2013-05-28 14:30:00,
2013-05-28 10:40:00,67.8,43.9,30.27,WSW,249,3.0,3.0,42,0.00,,,0.00,Wunderground v.1.15,2013-05-28 14:40:00,
2013-05-28 10:45:00,68.0,42.8,30.28,NW,320,3.0,3.0,40,0.00,,,0.00,Wunderground v.1.15,2013-05-28 14:45:00,
2013-05-28 10:50:00,68.0,41.4,30.28,SSW,209,4.0,8.0,38,0.00,,,0.00,Wunderground v.1.15,2013-05-28 14:50:00,
2013-05-28 10:55:00,67.9,42.0,30.28,SW,230,5.0,8.0,39,0.00,,,0.00,Wunderground v.1.15,2013-05-28 14:55:00,
2013-05-28 11:05:00,67.7,40.5,30.28,WSW,253,5.0,6.0,37,0.00,,,0.00,Wunderground v.1.15,2013-05-28 15:05:00,
2013-05-28 11:10:00,68.0,41.4,30.28,WSW,238,5.0,6.0,38,0.00,,,0.00,Wunderground v.1.15,2013-05-28 15:10:00,
2013-05-28 11:15:00,68.4,41.1,30.28,SSW,206,4.0,6.0,37,0.00,,,0.00,Wunderground v.1.15,2013-05-28 15:15:00,
2013-05-28 11:25:00,68.6,41.3,30.28,West,272,4.0,4.0,37,0.00,,,0.00,Wunderground v.1.15,2013-05-28 15:25:00,
2013-05-28 11:30:00,68.9,41.5,30.28,SW,232,4.0,6.0,37,0.00,,,0.00,Wunderground v.1.15,2013-05-28 15:30:00,
2013-05-28 11:35:00,68.9,41.5,30.27,SW,228,4.0,7.0,37,0.00,,,0.00,Wunderground v.1.15,2013-05-28 15:35:00,
2013-05-28 11:40:00,69.3,41.9,30.27,WSW,247,4.0,4.0,37,0.00,,,0.00,Wunderground v.1.15,2013-05-28 15:40:00,
2013-05-28 11:45:00,69.1,40.3,30.27,WSW,249,5.0,5.0,35,0.00,,,0.00,Wunderground v.1.15,2013-05-28 15:45:00,
2013-05-28 11:55:00,68.9,39.4,30.27,West,276,5.0,6.0,34,0.00,,,0.00,Wunderground v.1.15,2013-05-28 15:55:00,
2013-05-28 12:00:00,68.9,39.4,30.27,NW,310,5.0,5.0,34,0.00,,,0.00,Wunderground v.1.15,2013-05-28 16:00:00,
2013-05-28 12:05:00,69.5,39.9,30.27,WSW,256,4.0,7.0,34,0.00,,,0.00,Wunderground v.1.15,2013-05-28 16:05:00,
2013-05-28 12:10:00,69.4,38.2,30.27,WSW,241,4.0,7.0,32,0.00,,,0.00,Wunderground v.1.15,2013-05-28 16:10:00,
2013-05-28 12:15:00,69.6,39.2,30.27,NW,310,4.0,7.0,33,0.00,,,0.00,Wunderground v.1.15,2013-05-28 16:15:00,
2013-05-28 12:20:00,69.4,38.2,30.27,SW,236,5.0,5.0,32,0.00,,,0.00,Wunderground v.1.15,2013-05-28 16:20:00,
2013-05-28 12:30:00,70.1,38.0,30.27,NNW,333,4.0,4.0,31,0.00,,,0.00,Wunderground v.1.15,2013-05-28 16:30:00,
2013-05-28 12:40:00,69.9,35.3,30.27,WSW,257,5.0,7.0,28,0.00,,,0.00,Wunderground v.1.15,2013-05-28 16:40:00,
2013-05-28 12:45:00,69.6,35.9,30.27,WSW,253,5.0,7.0,29,0.00,,,0.00,Wunderground v.1.15,2013-05-28 16:45:00,
2013-05-28 12:50:00,69.7,36.0,30.27,WNW,291,6.0,6.0,29,0.00,,,0.00,Wunderground v.1.15,2013-05-28 16:50:00,
2013-05-28 12:55:00,69.8,35.2,30.27,WNW,286,6.0,6.0,28,0.00,,,0.00,Wunderground v.1.15,2013-05-28 16:55:00,
2013-05-28 13:00:00,70.1,36.3,30.26,WSW,253,5.0,6.0,29,0.00,,,0.00,Wunderground v.1.15,2013-05-28 17:00:00,
2013-05-28 13:10:00,69.9,37.0,30.26,West,276,5.0,5.0,30,0.00,,,0.00,Wunderground v.1.15,2013-05-28 17:10:00,
2013-05-28 13:15:00,70.4,37.5,30.27,SW,220,5.0,6.0,30,0.00,,,0.00,Wunderground v.1.15,2013-05-28 17:15:00,
2013-05-28 13:20:00,70.3,37.4,30.27,WSW,247,5.0,10.0,30,0.00,,,0.00,Wunderground v.1.15,2013-05-28 17:20:00,
2013-05-28 13:25:00,69.9,36.2,30.27,SW,216,6.0,10.0,29,0.00,,,0.00,Wunderground v.1.15,2013-05-28 17:25:00,
2013-05-28 13:30:00,69.6,36.8,30.27,South,187,7.0,7.0,30,0.00,,,0.00,Wunderground v.1.15,2013-05-28 17:30:00,
2013-05-28 13:35:00,70.2,38.1,30.27,WSW,244,6.0,7.0,31,0.00,,,0.00,Wunderground v.1.15,2013-05-28 17:35:00,
2013-05-28 13:45:00,70.3,38.2,30.26,SW,234,4.0,10.0,31,0.00,,,0.00,Wunderground v.1.15,2013-05-28 17:45:00,
2013-05-28 13:50:00,70.9,37.0,30.26,WNW,286,4.0,9.0,29,0.00,,,0.00,Wunderground v.1.15,2013-05-28 17:50:00,
2013-05-28 13:55:00,71.0,37.1,30.26,West,276,4.0,9.0,29,0.00,,,0.00,Wunderground v.1.15,2013-05-28 17:55:00,
2013-05-28 14:00:00,70.0,36.3,30.26,SSW,204,5.0,5.0,29,0.00,,,0.00,Wunderground v.1.15,2013-05-28 18:00:00,
2013-05-28 14:10:00,68.5,36.7,30.26,SW,235,8.0,8.0,31,0.00,,,0.00,Wunderground v.1.15,2013-05-28 18:10:00,
2013-05-28 14:15:00,68.6,36.7,30.26,SW,232,7.0,8.0,31,0.00,,,0.00,Wunderground v.1.15,2013-05-28 18:15:00,
2013-05-28 14:20:00,69.2,37.3,30.26,West,280,5.0,5.0,31,0.00,,,0.00,Wunderground v.1.15,2013-05-28 18:20:00,
2013-05-28 14:25:00,69.1,35.5,30.26,SSW,203,5.0,6.0,29,0.00,,,0.00,Wunderground v.1.15,2013-05-28 18:25:00,
2013-05-28 14:30:00,68.8,36.9,30.26,WNW,287,6.0,6.0,31,0.00,,,0.00,Wunderground v.1.15,2013-05-28 18:30:00,
2013-05-28 14:40:00,69.2,37.3,30.26,NW,320,4.0,4.0,31,0.00,,,0.00,Wunderground v.1.15,2013-05-28 18:40:00,
2013-05-28 14:45:00,69.5,38.3,30.26,SW,223,4.0,6.0,32,0.00,,,0.00,Wunderground v.1.15,2013-05-28 18:45:00,
2013-05-28 14:55:00,68.9,38.6,30.26,South,180,5.0,9.0,33,0.00,,,0.00,Wunderground v.1.15,2013-05-28 18:55:00,
2013-05-28 15:00:00,68.5,37.5,30.26,WSW,243,6.0,6.0,32,0.00,,,0.00,Wunderground v.1.15,2013-05-28 19:00:00,
2013-05-28 15:05:00,68.1,37.1,30.26,South,185,6.0,7.0,32,0.00,,,0.00,Wunderground v.1.15,2013-05-28 19:05:00,
2013-05-28 15:10:00,67.8,38.4,30.26,SW,235,6.0,6.0,34,0.00,,,0.00,Wunderground v.1.15,2013-05-28 19:10:00,
2013-05-28 15:15:00,68.4,38.2,30.26,SW,232,5.0,8.0,33,0.00,,,0.00,Wunderground v.1.15,2013-05-28 19:15:00,
2013-05-28 15:20:00,68.8,37.7,30.26,WNW,298,4.0,5.0,32,0.00,,,0.00,Wunderground v.1.15,2013-05-28 19:20:00,
2013-05-28 15:30:00,67.8,39.1,30.26,WNW,282,7.0,7.0,35,0.00,,,0.00,Wunderground v.1.15,2013-05-28 19:30:00,
2013-05-28 15:40:00,68.6,39.1,30.26,WNW,292,4.0,6.0,34,0.00,,,0.00,Wunderground v.1.15,2013-05-28 19:40:00,
2013-05-28 15:45:00,67.5,38.9,30.26,WSW,255,4.0,6.0,35,0.00,,,0.00,Wunderground v.1.15,2013-05-28 19:45:00,
2013-05-28 15:50:00,67.4,38.8,30.26,West,260,4.0,4.0,35,0.00,,,0.00,Wunderground v.1.15,2013-05-28 19:50:00,
2013-05-28 15:55:00,67.0,39.9,30.26,WSW,246,5.0,8.0,37,0.00,,,0.00,Wunderground v.1.15,2013-05-28 19:55:00,
2013-05-28 16:00:00,66.8,40.4,30.26,WSW,245,5.0,5.0,38,0.00,,,0.00,Wunderground v.1.15,2013-05-28 20:00:00,
2013-05-28 16:05:00,66.5,40.1,30.26,WSW,251,5.0,7.0,38,0.00,,,0.00,Wunderground v.1.15,2013-05-28 20:05:00,
2013-05-28 16:10:00,66.6,41.5,30.26,West,263,4.0,7.0,40,0.00,,,0.00,Wunderground v.1.15,2013-05-28 20:10:00,
2013-05-28 16:15:00,66.8,41.0,30.26,SSW,200,4.0,7.0,39,0.00,,,0.00,Wunderground v.1.15,2013-05-28 20:15:00,
2013-05-28 16:20:00,66.9,41.1,30.26,West,266,4.0,4.0,39,0.00,,,0.00,Wunderground v.1.15,2013-05-28 20:20:00,
2013-05-28 16:25:00,67.0,41.2,30.26,WNW,296,3.0,4.0,39,0.00,,,0.00,Wunderground v.1.15,2013-05-28 20:25:00,
2013-05-28 16:30:00,67.1,39.9,30.26,SSW,193,4.0,7.0,37,0.00,,,0.00,Wunderground v.1.15,2013-05-28 20:30:00,
2013-05-28 16:35:00,67.1,39.2,30.25,SW,232,3.0,7.0,36,0.00,,,0.00,Wunderground v.1.15,2013-05-28 20:35:00,
2013-05-28 16:45:00,66.8,37.5,30.26,West,278,4.0,6.0,34,0.00,,,0.00,Wunderground v.1.15,2013-05-28 20:45:00,
2013-05-28 16:50:00,66.9,40.5,30.26,WSW,251,5.0,5.0,38,0.00,,,0.00,Wunderground v.1.15,2013-05-28 20:50:00,
2013-05-28 16:55:00,66.6,39.5,30.25,SW,227,4.0,5.0,37,0.00,,,0.00,Wunderground v.1.15,2013-05-28 20:55:00,
2013-05-28 17:00:00,66.3,39.9,30.26,SW,231,4.0,4.0,38,0.00,,,0.00,Wunderground v.1.15,2013-05-28 21:00:00,
2013-05-28 17:05:00,66.2,40.5,30.25,West,270,4.0,4.0,39,0.00,,,0.00,Wunderground v.1.15,2013-05-28 21:05:00,
2013-05-28 17:10:00,65.9,40.9,30.26,WSW,243,4.0,9.0,40,0.00,,,0.00,Wunderground v.1.15,2013-05-28 21:10:00,
2013-05-28 17:20:00,66.2,41.2,30.25,WSW,257,3.0,3.0,40,0.00,,,0.00,Wunderground v.1.15,2013-05-28 21:20:00,
2013-05-28 17:25:00,66.3,40.6,30.25,WSW,243,3.0,5.0,39,0.00,,,0.00,Wunderground v.1.15,2013-05-28 21:25:00,
2013-05-28 17:30:00,66.0,40.3,30.25,WNW,303,3.0,3.0,39,0.00,,,0.00,Wunderground v.1.15,2013-05-28 21:30:00,
2013-05-28 17:40:00,66.2,39.8,30.24,WSW,251,3.0,4.0,38,0.00,,,0.00,Wunderground v.1.15,2013-05-28 21:40:00,
2013-05-28 17:45:00,66.0,38.3,30.24,WSW,243,5.0,5.0,36,0.00,,,0.00,Wunderground v.1.15,2013-05-28 21:45:00,
2013-05-28 17:50:00,66.0,38.3,30.24,West,259,4.0,4.0,36,0.00,,,0.00,Wunderground v.1.15,2013-05-28 21:50:00,
2013-05-28 17:55:00,66.1,39.1,30.25,SSW,199,2.0,8.0,37,0.00,,,0.00,Wunderground v.1.15,2013-05-28 21:55:00,
2013-05-28 18:00:00,65.9,38.9,30.25,WNW,291,2.0,3.0,37,0.00,,,0.00,Wunderground v.1.15,2013-05-28 22:00:00,
2013-05-28 18:10:00,65.2,39.6,30.24,WSW,249,3.0,3.0,39,0.00,,,0.00,Wunderground v.1.15,2013-05-28 22:10:00,
2013-05-28 18:15:00,65.0,39.4,30.24,SW,228,2.0,3.0,39,0.00,,,0.00,Wunderground v.1.15,2013-05-28 22:15:00,
2013-05-28 18:20:00,64.8,39.9,30.25,WNW,282,2.0,2.0,40,0.00,,,0.00,Wunderground v.1.15,2013-05-28 22:20:00,
2013-05-28 18:25:00,64.1,39.9,30.25,SW,215,3.0,4.0,41,0.00,,,0.00,Wunderground v.1.15,2013-05-28 22:25:00,
2013-05-28 18:35:00,63.2,40.3,30.24,SW,222,4.0,4.0,43,0.00,,,0.00,Wunderground v.1.15,2013-05-28 22:35:00,
2013-05-28 18:40:00,63.2,40.3,30.24,SSW,205,3.0,3.0,43,0.00,,,0.00,Wunderground v.1.15,2013-05-28 22:40:00,
2013-05-28 18:45:00,63.0,40.1,30.24,WSW,241,2.0,3.0,43,0.00,,,0.00,Wunderground v.1.15,2013-05-28 22:45:00,
2013-05-28 18:50:00,63.1,40.8,30.24,WSW,253,2.0,2.0,44,0.00,,,0.00,Wunderground v.1.15,2013-05-28 22:50:00,
2013-05-28 18:55:00,62.9,40.6,30.24,SSW,199,2.0,2.0,44,0.00,,,0.00,Wunderground v.1.15,2013-05-28 22:55:00,
2013-05-28 19:00:00,62.6,40.9,30.24,SW,236,2.0,2.0,45,0.00,,,0.00,Wunderground v.1.15,2013-05-28 23:00:00,
2013-05-28 19:05:00,62.4,40.8,30.25,WSW,247,2.0,2.0,45,0.00,,,0.00,Wunderground v.1.15,2013-05-28 23:05:00,
2013-05-28 19:10:00,62.0,40.4,30.24,SSW,200,3.0,3.0,45,0.00,,,0.00,Wunderground v.1.15,2013-05-28 23:10:00,
2013-05-28 19:15:00,61.9,40.9,30.24,WSW,247,2.0,5.0,46,0.00,,,0.00,Wunderground v.1.15,2013-05-28 23:15:00,
2013-05-28 19:20:00,61.6,40.6,30.24,WSW,239,2.0,2.0,46,0.00,,,0.00,Wunderground v.1.15,2013-05-28 23:20:00,
2013-05-28 19:25:00,61.5,41.1,30.24,SW,222,2.0,2.0,47,0.00,,,0.00,Wunderground v.1.15,2013-05-28 23:25:00,
2013-05-28 19:30:00,61.5,41.6,30.24,SSW,204,1.0,1.0,48,0.00,,,0.00,Wunderground v.1.15,2013-05-28 23:30:00,
2013-05-28 19:40:00,61.2,41.9,30.25,SW,232,1.0,2.0,49,0.00,,,0.00,Wunderground v.1.15,2013-05-28 23:40:00,
2013-05-28 19:45:00,61.1,41.8,30.24,SSW,199,1.0,2.0,49,0.00,,,0.00,Wunderground v.1.15,2013-05-28 23:45:00,
2013-05-28 19:50:00,60.9,42.1,30.25,WSW,249,1.0,1.0,50,0.00,,,0.00,Wunderground v.1.15,2013-05-28 23:50:00,
2013-05-28 19:55:00,60.6,42.4,30.25,West,264,1.0,1.0,51,0.00,,,0.00,Wunderground v.1.15,2013-05-28 23:55:00,
2013-05-28 20:00:00,60.2,42.0,30.24,WSW,251,1.0,1.0,51,0.00,,,0.00,Wunderground v.1.15,2013-05-29 00:00:00,
2013-05-28 20:10:00,59.6,42.4,30.24,WSW,239,1.0,1.0,53,0.00,,,0.00,Wunderground v.1.15,2013-05-29 00:10:00,
2013-05-28 20:15:00,59.3,42.6,30.24,WSW,247,0.0,2.0,54,0.00,,,0.00,Wunderground v.1.15,2013-05-29 00:15:00,
2013-05-28 20:25:00,58.8,43.1,30.24,WSW,247,1.0,1.0,56,0.00,,,0.00,Wunderground v.1.15,2013-05-29 00:25:00,
2013-05-28 20:30:00,58.5,43.3,30.24,WSW,247,0.0,0.0,57,0.00,,,0.00,Wunderground v.1.15,2013-05-29 00:30:00,
2013-05-28 20:35:00,58.4,43.7,30.24,WSW,247,0.0,0.0,58,0.00,,,0.00,Wunderground v.1.15,2013-05-29 00:35:00,
2013-05-28 20:40:00,58.1,43.4,30.25,WSW,254,0.0,1.0,58,0.00,,,0.00,Wunderground v.1.15,2013-05-29 00:40:00,
2013-05-28 20:45:00,57.8,44.0,30.25,West,262,0.0,1.0,60,0.00,,,0.00,Wunderground v.1.15,2013-05-29 00:45:00,
2013-05-28 20:50:00,57.6,43.8,30.25,West,262,1.0,1.0,60,0.00,,,0.00,Wunderground v.1.15,2013-05-29 00:50:00,
2013-05-28 21:00:00,57.2,44.7,30.25,WSW,248,1.0,2.0,63,0.00,,,0.00,Wunderground v.1.15,2013-05-29 01:00:00,
2013-05-28 21:10:00,56.8,44.7,30.25,WSW,251,1.0,4.0,64,0.00,,,0.00,Wunderground v.1.15,2013-05-29 01:10:00,
2013-05-28 21:15:00,56.6,45.0,30.25,WSW,251,1.0,4.0,65,0.00,,,0.00,Wunderground v.1.15,2013-05-29 01:15:00,
2013-05-28 21:20:00,56.4,45.2,30.25,SW,235,1.0,1.0,66,0.00,,,0.00,Wunderground v.1.15,2013-05-29 01:20:00,
2013-05-28 21:30:00,56.0,45.6,30.25,SW,235,0.0,0.0,68,0.00,,,0.00,Wunderground v.1.15,2013-05-29 01:30:00,
2013-05-28 21:40:00,55.5,45.9,30.25,SW,235,0.0,0.0,70,0.00,,,0.00,Wunderground v.1.15,2013-05-29 01:40:00,
2013-05-28 21:45:00,55.2,46.0,30.25,SW,235,0.0,0.0,71,0.00,,,0.00,Wunderground v.1.15,2013-05-29 01:45:00,
2013-05-28 21:50:00,54.8,45.9,30.26,SW,235,0.0,0.0,72,0.00,,,0.00,Wunderground v.1.15,2013-05-29 01:50:00,
2013-05-28 21:55:00,54.4,45.9,30.26,SW,235,0.0,0.0,73,0.00,,,0.00,Wunderground v.1.15,2013-05-29 01:55:00,
2013-05-28 22:00:00,53.9,45.8,30.26,SW,235,0.0,0.0,74,0.00,,,0.00,Wunderground v.1.15,2013-05-29 02:00:00,
2013-05-28 22:05:00,53.3,45.6,30.26,SW,235,0.0,0.0,75,0.00,,,0.00,Wunderground v.1.15,2013-05-29 02:05:00,
2013-05-28 22:15:00,52.5,45.5,30.26,SW,235,0.0,0.0,77,0.00,,,0.00,Wunderground v.1.15,2013-05-29 02:15:00,
2013-05-28 22:20:00,52.3,46.0,30.26,SW,235,0.0,0.0,79,0.00,,,0.00,Wunderground v.1.15,2013-05-29 02:20:00,
2013-05-28 22:25:00,52.3,46.0,30.26,SW,235,0.0,0.0,79,0.00,,,0.00,Wunderground v.1.15,2013-05-29 02:25:00,
2013-05-28 22:30:00,52.1,45.8,30.26,SW,235,0.0,0.0,79,0.00,,,0.00,Wunderground v.1.15,2013-05-29 02:30:00,
2013-05-28 22:35:00,51.9,45.6,30.25,SW,235,0.0,0.0,79,0.00,,,0.00,Wunderground v.1.15,2013-05-29 02:35:00,
2013-05-28 22:40:00,51.7,45.7,30.25,SW,235,0.0,0.0,80,0.00,,,0.00,Wunderground v.1.15,2013-05-29 02:40:00,
2013-05-28 22:50:00,51.4,45.8,30.25,SW,235,0.0,0.0,81,0.00,,,0.00,Wunderground v.1.15,2013-05-29 02:50:00,
2013-05-28 22:55:00,51.3,46.0,30.25,SW,235,0.0,0.0,82,0.00,,,0.00,Wunderground v.1.15,2013-05-29 02:55:00,
2013-05-28 23:00:00,51.1,46.1,30.25,SW,235,0.0,0.0,83,0.00,,,0.00,Wunderground v.1.15,2013-05-29 03:00:00,
2013-05-28 23:05:00,51.0,46.0,30.25,SW,235,0.0,0.0,83,0.00,,,0.00,Wunderground v.1.15,2013-05-29 03:05:00,
2013-05-28 23:10:00,50.9,45.9,30.25,SW,235,0.0,0.0,83,0.00,,,0.00,Wunderground v.1.15,2013-05-29 03:10:00,
2013-05-28 23:15:00,50.7,46.0,30.25,SW,235,0.0,0.0,84,0.00,,,0.00,Wunderground v.1.15,2013-05-29 03:15:00,
2013-05-28 23:25:00,50.6,45.9,30.25,SW,235,0.0,0.0,84,0.00,,,0.00,Wunderground v.1.15,2013-05-29 03:25:00,
2013-05-28 23:30:00,50.6,46.3,30.25,SW,235,0.0,0.0,85,0.00,,,0.00,Wunderground v.1.15,2013-05-29 03:30:00,
2013-05-28 23:40:00,50.5,46.2,30.25,SW,235,0.0,0.0,85,0.00,,,0.00,Wunderground v.1.15,2013-05-29 03:40:00,
2013-05-28 23:45:00,50.3,46.3,30.25,SW,235,0.0,0.0,86,0.00,,,0.00,Wunderground v.1.15,2013-05-29 03:45:00,
2013-05-28 23:50:00,50.1,46.1,30.25,SW,235,0.0,0.0,86,0.00,,,0.00,Wunderground v.1.15,2013-05-29 03:50:00,